메인 페이지
METAR-TAF:

METAR-TAF

공항 :

옥스퍼드, 잉글랜드

위도: 51-50-13N, 경도: 1-19-12W, 고도: 82m

현재 날씨관측

예보는 6 시간 59분 전, 21:20시(UTC)에 발표되었습니다.
4kt
온도 13°C
습도 82%
기압 1016 hPa
시정 10km 이상
1500m 미만 상공 구름 및 적란운 없음

METAR: EGTK 122120Z 35004KT CAVOK 13/10 Q1016

시각: 05:19 (04:19 UTC)

예보

예보는 11 시간 24분 전, 16:55시(UTC)에 발표되었습니다.
예보 대상 시간: 12일 18시부터 12일 22시까지 (UTC)
북북서7kt
시정 10km 이상
고도 4000ft 상공 구름 보통

TAF: EGTK 121655Z 1218/1222 34007KT 9999 SCT040

4,000개 이상의 공항 관측 자료 및 예보 (METAR 및 TAF 보고).

지도상에서 검색 가능한 기상관측소가 노란 점과 빨간 점으로 표시되어 있습니다.

기상관측소 명을 보려면 표시 위로 마우스를 이동하세요.

날씨 관측과 예보를 보려면 클릭하세요.

지도 변경 : 확대하려면 엑스 표시가 있는 녹색 버튼, 축소하려면 빼기 표시가 있는 녹색 버튼, 다음 페이지의 지도를 보려면 녹색 화살표를 클릭하세요.


METAR-TAF: